Time;durP1;ratioP1;P1;durP2;ratioP2;P2;SDS_P1;SDS_P2;PMS_P1;PMS_P2;Temp;Humidity;BMP_temperature;BMP_pressure;BME280_temperature;BME280_humidity;BME280_pressure;Samples;Min_cycle;Max_cycle;Signal;HPM_P1;HPM_P2
2023/03/26 00:01:28;;;;;;;43.58;25.90;;;;;;;7.79;85.73;98442.47;5052525;28;20021;-76
2023/03/26 00:03:56;;;;;;;38.53;21.13;;;;;;;7.79;85.67;98441.66;5052964;28;20065;-76
2023/03/26 00:06:24;;;;;;;38.83;22.85;;;;;;;7.88;85.57;98459.28;5052615;28;20025;-76
2023/03/26 00:08:51;;;;;;;27.27;16.08;;;;;;;7.84;85.53;98456.06;5052718;28;20025;-76
2023/03/26 00:11:18;;;;;;;20.02;12.40;;;;;;;7.76;85.88;98455.63;5052536;28;20025;-76
2023/03/26 00:13:45;;;;;;;13.43;8.75;;;;;;;7.80;85.46;98451.94;5052933;28;20040;-76
2023/03/26 00:16:12;;;;;;;9.85;5.38;;;;;;;7.84;85.46;98458.66;5052638;28;20017;-76
2023/03/26 00:18:39;;;;;;;10.23;6.43;;;;;;;7.70;85.15;98436.03;5052020;28;20186;-76
2023/03/26 00:21:06;;;;;;;7.20;4.05;;;;;;;7.83;85.63;98461.28;5052605;28;20111;-76
2023/03/26 00:23:34;;;;;;;5.45;3.15;;;;;;;7.40;85.46;98385.88;5052256;28;20108;-76
2023/03/26 00:26:00;;;;;;;5.07;2.88;;;;;;;7.82;85.67;98447.50;5052280;28;20080;-76
2023/03/26 00:28:26;;;;;;;5.22;3.03;;;;;;;7.83;85.48;98419.81;5052267;28;20040;-76
2023/03/26 00:31:00;;;;;;;6.20;2.80;;;;;;;8.00;85.27;98436.09;5052385;28;20029;-76
2023/03/26 00:33:26;;;;;;;4.93;2.58;;;;;;;8.07;85.13;98423.66;5052137;28;20039;-76
2023/03/26 00:35:53;;;;;;;5.13;2.30;;;;;;;8.16;84.81;98423.13;5052215;28;20052;-76
2023/03/26 00:38:21;;;;;;;4.32;2.08;;;;;;;8.14;84.59;98412.03;5051989;28;20075;-76
2023/03/26 00:40:49;;;;;;;5.65;2.85;;;;;;;8.23;84.69;98403.72;5052122;28;20028;-76
2023/03/26 00:43:18;;;;;;;3.50;1.88;;;;;;;8.29;84.50;98402.53;5052223;28;20035;-76
2023/03/26 00:45:52;;;;;;;5.80;2.20;;;;;;;8.48;84.16;98428.28;5052189;28;20028;-76
2023/03/26 00:48:19;;;;;;;4.07;1.90;;;;;;;8.53;84.02;98423.66;5051865;28;20028;-76
2023/03/26 00:50:46;;;;;;;4.97;2.30;;;;;;;8.48;83.82;98399.75;5051966;28;20021;-76
2023/03/26 00:53:13;;;;;;;4.80;2.22;;;;;;;8.28;83.55;98355.94;5051908;28;20029;-76
2023/03/26 00:55:43;;;;;;;5.43;2.13;;;;;;;8.54;83.39;98394.19;5051709;28;20461;-77
2023/03/26 00:58:10;;;;;;;5.88;2.10;;;;;;;8.72;83.55;98413.91;5052095;28;20037;-76
2023/03/26 01:01:02;;;;;;;4.03;2.40;;;;;;;8.78;83.33;98423.06;5051814;28;20052;-76
2023/03/26 01:03:32;;;;;;;7.03;2.60;;;;;;;8.80;83.11;98420.38;5029293;28;20049;-76
2023/03/26 01:06:03;;;;;;;5.57;2.78;;;;;;;8.84;82.68;98427.06;5011878;28;20453;-76
2023/03/26 01:08:41;;;;;;;5.70;2.63;;;;;;;8.78;82.63;98410.09;5028884;28;20121;-76
2023/03/26 01:11:29;;;;;;;5.88;3.00;;;;;;;8.75;82.26;98407.66;5029396;28;20115;-76
2023/03/26 01:14:16;;;;;;;5.55;2.40;;;;;;;8.81;82.20;98404.72;5029468;28;20038;-76
2023/03/26 01:16:50;;;;;;;4.57;2.47;;;;;;;8.86;82.39;98413.06;5029190;28;20036;-76
2023/03/26 01:19:28;;;;;;;3.95;2.40;;;;;;;8.96;82.25;98441.91;5029185;28;20084;-76
2023/03/26 01:21:54;;;;;;;4.03;2.58;;;;;;;8.92;82.11;98430.88;5029432;28;20052;-76
2023/03/26 01:24:19;;;;;;;4.60;2.92;;;;;;;8.95;82.02;98435.06;5029290;28;20404;-76
2023/03/26 01:26:52;;;;;;;7.60;3.05;;;;;;;8.90;81.90;98440.53;5029377;28;20082;-76
2023/03/26 01:29:23;;;;;;;5.20;2.33;;;;;;;8.76;82.13;98411.94;5029308;28;20049;-76
2023/03/26 01:32:15;;;;;;;4.75;2.50;;;;;;;8.79;82.11;98436.88;5033335;28;20049;-76
2023/03/26 01:34:48;;;;;;;5.70;2.60;;;;;;;8.71;82.25;98438.16;4974173;28;20039;-76
2023/03/26 01:37:29;;;;;;;4.05;2.50;;;;;;;8.48;82.44;98410.97;4974424;28;20371;-76
2023/03/26 01:40:04;;;;;;;3.67;2.30;;;;;;;8.66;82.58;98437.59;4974338;28;20538;-76
2023/03/26 01:42:43;;;;;;;4.63;2.70;;;;;;;8.40;82.82;98387.22;4974206;28;20042;-76
2023/03/26 01:45:14;;;;;;;4.57;2.50;;;;;;;8.67;82.74;98438.44;4974268;28;20096;-76
2023/03/26 01:47:41;;;;;;;3.30;2.50;;;;;;;8.66;82.60;98436.75;4974086;28;20394;-76
2023/03/26 01:50:07;;;;;;;4.72;2.92;;;;;;;8.64;82.60;98431.69;4974273;28;20598;-76
2023/03/26 01:52:32;;;;;;;4.43;2.58;;;;;;;8.48;82.88;98407.53;4973981;28;20093;-76
2023/03/26 01:54:58;;;;;;;4.63;2.90;;;;;;;8.50;82.94;98419.47;4974169;28;20030;-76
2023/03/26 01:57:38;;;;;;;4.80;2.65;;;;;;;8.59;83.20;98428.50;4973792;28;20534;-76
2023/03/26 02:00:30;;;;;;;4.30;2.75;;;;;;;8.59;83.06;98415.50;4974070;28;20039;-76
2023/03/26 02:03:04;;;;;;;4.65;2.50;;;;;;;8.57;83.08;98422.56;4974054;28;20026;-76
2023/03/26 02:05:32;;;;;;;4.18;2.33;;;;;;;8.64;83.10;98408.31;4973693;28;20530;-76
2023/03/26 02:08:10;;;;;;;6.18;2.33;;;;;;;8.53;83.09;98392.53;4973866;28;20034;-76
2023/03/26 02:10:41;;;;;;;3.75;2.33;;;;;;;8.46;83.21;98386.84;4984970;28;20037;-76
2023/03/26 02:13:06;;;;;;;4.33;1.90;;;;;;;8.42;83.17;98406.09;5055103;28;20025;-76
2023/03/26 02:15:32;;;;;;;3.15;2.13;;;;;;;8.25;83.34;98385.47;5054557;28;20036;-76
2023/03/26 02:17:58;;;;;;;5.28;2.15;;;;;;;8.22;83.21;98388.25;5054817;28;20032;-76
2023/03/26 02:20:28;;;;;;;3.35;2.03;;;;;;;8.26;83.40;98400.13;5054425;28;20060;-76
2023/03/26 02:22:55;;;;;;;4.88;2.08;;;;;;;8.24;83.50;98388.97;5054663;28;20032;-76
2023/03/26 02:25:21;;;;;;;3.40;2.03;;;;;;;8.19;83.77;98394.44;5054911;28;20036;-76
2023/03/26 02:27:48;;;;;;;5.72;2.58;;;;;;;8.11;84.35;98395.78;5054749;28;20052;-76
2023/03/26 02:30:17;;;;;;;5.13;2.95;;;;;;;7.92;84.53;98370.91;5054575;28;20036;-76
2023/03/26 02:32:42;;;;;;;7.15;2.80;;;;;;;8.12;84.66;98407.84;5054370;28;20029;-76
2023/03/26 02:35:09;;;;;;;11.80;5.07;;;;;;;8.18;84.65;98402.31;5054447;28;20036;-76
2023/03/26 02:37:35;;;;;;;16.50;6.40;;;;;;;8.13;84.79;98397.41;5054466;28;20131;-76
2023/03/26 02:40:03;;;;;;;18.73;8.13;;;;;;;8.24;84.92;98404.53;5054567;28;20028;-76
2023/03/26 02:42:28;;;;;;;11.77;5.80;;;;;;;8.17;85.06;98380.69;5054231;28;20045;-76
2023/03/26 02:44:54;;;;;;;11.43;5.13;;;;;;;8.35;85.18;98407.38;5054426;28;20060;-76
2023/03/26 02:47:19;;;;;;;6.70;2.90;;;;;;;8.28;85.45;98384.47;5054329;28;20059;-76
2023/03/26 02:49:44;;;;;;;11.82;4.60;;;;;;;8.38;85.47;98394.22;5054051;28;20025;-76
2023/03/26 02:52:10;;;;;;;7.78;3.80;;;;;;;8.52;85.70;98403.84;5054372;28;20028;-76
2023/03/26 02:54:35;;;;;;;7.38;3.33;;;;;;;8.40;85.97;98374.25;5054125;28;20480;-76
2023/03/26 02:57:01;;;;;;;8.40;3.63;;;;;;;8.59;85.90;98404.31;5054238;28;20473;-76
2023/03/26 02:59:26;;;;;;;9.68;3.80;;;;;;;8.58;86.16;98400.88;5054184;28;20400;-76
2023/03/26 03:01:51;;;;;;;9.85;4.63;;;;;;;8.52;85.91;98384.84;5052822;28;20025;-76
2023/03/26 03:04:17;;;;;;;11.07;4.50;;;;;;;8.58;85.80;98395.69;5053957;28;20071;-76
2023/03/26 03:06:43;;;;;;;11.95;6.32;;;;;;;8.72;85.75;98402.66;5053690;28;20142;-76
2023/03/26 03:09:10;;;;;;;13.60;4.75;;;;;;;8.56;85.50;98383.75;5053991;28;20029;-76
2023/03/26 03:11:37;;;;;;;15.32;6.43;;;;;;;8.59;85.62;98379.19;5053577;28;20411;-76
2023/03/26 03:14:02;;;;;;;10.57;5.05;;;;;;;8.70;85.48;98387.19;5053979;28;20079;-76
2023/03/26 03:16:28;;;;;;;5.95;3.00;;;;;;;8.72;85.50;98403.50;5053530;28;20029;-76
2023/03/26 03:18:55;;;;;;;6.00;3.38;;;;;;;8.77;85.11;98405.00;5053455;28;20056;-76
2023/03/26 03:21:21;;;;;;;8.50;4.80;;;;;;;8.62;85.43;98396.34;5053941;28;20128;-76
2023/03/26 03:23:46;;;;;;;7.20;4.68;;;;;;;8.68;85.97;98411.53;5053385;28;20456;-76
2023/03/26 03:26:14;;;;;;;7.85;3.85;;;;;;;8.64;85.93;98403.13;5053842;28;20056;-76
2023/03/26 03:28:39;;;;;;;6.00;2.97;;;;;;;8.68;86.23;98411.53;5053374;28;20025;-76
2023/03/26 03:31:07;;;;;;;4.10;2.20;;;;;;;8.43;86.58;98381.84;5053368;28;20078;-76
2023/03/26 03:33:33;;;;;;;5.35;2.55;;;;;;;8.45;86.52;98389.53;5053163;28;20039;-76
2023/03/26 03:35:58;;;;;;;4.03;2.25;;;;;;;8.61;86.83;98413.69;5053761;28;20021;-76
2023/03/26 03:38:24;;;;;;;6.07;2.50;;;;;;;8.53;87.30;98383.91;5053459;28;20036;-76
2023/03/26 03:40:53;;;;;;;6.07;3.35;;;;;;;8.46;86.77;98383.41;5053324;28;20059;-76
2023/03/26 03:43:18;;;;;;;6.43;3.72;;;;;;;8.45;86.78;98377.41;5053335;28;20033;-76
2023/03/26 03:45:44;;;;;;;4.10;2.47;;;;;;;8.50;87.20;98383.16;5052954;28;20861;-76
2023/03/26 03:48:09;;;;;;;7.70;2.58;;;;;;;8.45;87.28;98392.97;5053080;28;20024;-76
2023/03/26 03:50:35;;;;;;;4.40;2.83;;;;;;;8.53;87.04;98396.88;5053064;28;20075;-76
2023/03/26 03:53:01;;;;;;;4.80;2.42;;;;;;;8.67;87.23;98420.25;5052635;28;20040;-76
2023/03/26 03:55:27;;;;;;;5.90;2.80;;;;;;;8.55;87.06;98403.63;5052995;28;20017;-76
2023/03/26 03:57:53;;;;;;;4.68;3.28;;;;;;;8.68;86.87;98427.13;5053240;28;20396;-76
2023/03/26 04:00:19;;;;;;;5.35;3.42;;;;;;;8.58;86.95;98407.81;5052875;28;20025;-76
2023/03/26 04:02:44;;;;;;;4.38;2.90;;;;;;;8.66;87.22;98416.84;5052486;28;20536;-76
2023/03/26 04:05:10;;;;;;;4.43;3.15;;;;;;;8.70;86.98;98427.88;5052789;28;20110;-76
2023/03/26 04:07:36;;;;;;;6.05;3.13;;;;;;;8.63;86.99;98416.16;5052750;28;20021;-76
2023/03/26 04:10:03;;;;;;;4.63;3.00;;;;;;;8.59;87.16;98401.69;5052818;28;20111;-76
2023/03/26 04:12:29;;;;;;;6.38;3.42;;;;;;;8.70;87.50;98415.72;5052698;28;20117;-76
2023/03/26 04:14:55;;;;;;;7.07;3.05;;;;;;;8.74;87.49;98427.59;5052598;28;20032;-76
2023/03/26 04:17:21;;;;;;;6.68;3.13;;;;;;;8.79;87.39;98429.94;5052447;28;20029;-76
2023/03/26 04:19:47;;;;;;;6.13;3.05;;;;;;;8.65;87.18;98402.19;5052352;28;20045;-76
2023/03/26 04:22:13;;;;;;;5.05;2.67;;;;;;;8.76;87.09;98419.72;5052688;28;20025;-76
2023/03/26 04:24:39;;;;;;;7.22;3.00;;;;;;;8.75;87.16;98424.06;5052210;28;20036;-76
2023/03/26 04:27:07;;;;;;;5.65;2.40;;;;;;;8.70;86.88;98412.31;5052385;28;20032;-76
2023/03/26 04:29:41;;;;;;;3.53;2.50;;;;;;;8.80;86.68;98422.97;5052087;28;20060;-76
2023/03/26 04:32:18;;;;;;;3.13;1.90;;;;;;;8.62;86.48;98399.78;5052270;28;20029;-76
2023/03/26 04:34:44;;;;;;;4.30;2.40;;;;;;;8.68;86.31;98420.19;5052212;28;20044;-76
2023/03/26 04:37:17;;;;;;;4.53;2.47;;;;;;;8.66;85.96;98413.41;5052374;28;20017;-76
2023/03/26 04:39:43;;;;;;;3.38;2.50;;;;;;;8.75;85.54;98423.25;5052086;28;20040;-76
2023/03/26 04:42:10;;;;;;;6.70;2.63;;;;;;;8.64;85.25;98408.31;5052194;28;20381;-76
2023/03/26 04:44:35;;;;;;;7.80;2.22;;;;;;;8.68;85.08;98409.81;5051856;28;20033;-76
2023/03/26 04:47:00;;;;;;;5.93;2.75;;;;;;;8.67;84.97;98408.13;5052290;28;20025;-76
2023/03/26 04:49:25;;;;;;;3.92;2.30;;;;;;;8.73;84.92;98415.56;5050798;28;20040;-76
2023/03/26 04:51:51;;;;;;;6.43;2.80;;;;;;;8.78;84.56;98423.06;5051903;28;20127;-76
2023/03/26 04:54:21;;;;;;;3.70;2.10;;;;;;;8.67;84.54;98404.69;5052047;28;20036;-76
2023/03/26 04:57:01;;;;;;;4.95;2.35;;;;;;;8.65;84.22;98406.56;5051738;28;20070;-76
2023/03/26 04:59:32;;;;;;;2.65;2.03;;;;;;;8.79;84.25;98429.09;5052077;28;20029;-76
2023/03/26 05:01:58;;;;;;;3.90;2.00;;;;;;;8.70;84.31;98409.72;5052054;28;20025;-76
2023/03/26 05:04:25;;;;;;;4.78;2.10;;;;;;;8.86;84.25;98433.00;5051978;28;20499;-76
2023/03/26 05:06:51;;;;;;;3.17;2.10;;;;;;;8.80;84.81;98434.19;5051743;28;20032;-76
2023/03/26 05:09:18;;;;;;;3.03;1.80;;;;;;;8.58;84.93;98385.31;5051826;28;20025;-76
2023/03/26 05:11:44;;;;;;;5.85;2.10;;;;;;;8.79;84.83;98419.53;5051634;28;20583;-76
2023/03/26 05:14:09;;;;;;;4.05;2.00;;;;;;;8.78;85.02;98424.84;5050944;28;20060;-76
2023/03/26 05:16:35;;;;;;;3.38;1.90;;;;;;;8.77;84.76;98413.63;5051887;28;20025;-76
2023/03/26 05:19:00;;;;;;;4.00;1.80;;;;;;;8.85;84.85;98421.78;5051673;28;20485;-76
2023/03/26 05:21:26;;;;;;;3.00;2.05;;;;;;;8.82;84.68;98411.59;5051498;28;20064;-76
2023/03/26 05:23:51;;;;;;;4.90;1.83;;;;;;;8.94;84.80;98430.81;5051525;28;20028;-76
2023/03/26 05:26:17;;;;;;;3.08;2.03;;;;;;;8.92;84.47;98425.69;5051507;28;20610;-76
2023/03/26 05:28:42;;;;;;;3.05;1.88;;;;;;;8.86;84.26;98402.69;5051564;28;20025;-76
2023/03/26 05:31:09;;;;;;;4.43;1.98;;;;;;;9.23;83.74;98437.69;5051701;28;20028;-76
2023/03/26 05:33:35;;;;;;;3.05;2.22;;;;;;;9.32;83.29;98404.28;5051411;28;20037;-76
2023/03/26 05:36:03;;;;;;;3.45;1.73;;;;;;;9.53;82.66;98418.53;5051578;28;20017;-76
2023/03/26 05:38:30;;;;;;;3.50;1.70;;;;;;;9.84;81.95;98433.06;5051240;28;20511;-76
2023/03/26 05:41:00;;;;;;;3.10;1.83;;;;;;;10.08;81.70;98435.88;5051748;28;20072;-76
2023/03/26 05:43:26;;;;;;;4.45;2.08;;;;;;;10.36;80.53;98442.75;5051560;28;20029;-76
2023/03/26 05:45:52;;;;;;;4.80;2.22;;;;;;;10.32;79.79;98414.44;5051345;28;20064;-76
2023/03/26 05:48:17;;;;;;;2.88;2.08;;;;;;;10.33;79.19;98413.50;5051469;28;20452;-76
2023/03/26 05:50:43;;;;;;;4.63;2.10;;;;;;;10.41;79.30;98440.72;5051170;28;20509;-76
2023/03/26 05:53:08;;;;;;;3.13;2.13;;;;;;;10.26;79.51;98422.66;5051280;28;20029;-76
2023/03/26 05:55:33;;;;;;;4.53;1.98;;;;;;;10.30;79.58;98431.91;5051320;28;20025;-76
2023/03/26 05:57:59;;;;;;;4.57;2.22;;;;;;;10.29;79.73;98445.88;5051538;28;20389;-76
2023/03/26 06:00:26;;;;;;;2.50;2.10;;;;;;;10.18;79.95;98434.34;5051470;28;20033;-76
2023/03/26 06:02:53;;;;;;;3.67;2.30;;;;;;;10.05;79.89;98430.84;5051131;28;20037;-76
2023/03/26 06:05:19;;;;;;;2.75;2.00;;;;;;;10.08;80.20;98445.44;5051289;28;20029;-76
2023/03/26 06:07:44;;;;;;;5.20;2.40;;;;;;;10.03;80.48;98450.09;5050916;28;20021;-76
2023/03/26 06:10:09;;;;;;;4.70;2.33;;;;;;;10.00;80.61;98449.38;5051280;28;20025;-76
2023/03/26 06:12:35;;;;;;;4.55;2.63;;;;;;;9.94;80.86;98456.72;5051177;28;20059;-76
2023/03/26 06:15:01;;;;;;;5.30;2.28;;;;;;;9.71;81.02;98440.78;5051261;28;20025;-76
2023/03/26 06:17:26;;;;;;;5.75;1.80;;;;;;;9.68;81.60;98434.94;5054996;28;20037;-76
2023/03/26 06:19:51;;;;;;;4.00;1.95;;;;;;;9.66;81.45;98442.84;5054984;28;20465;-76
2023/03/26 06:22:16;;;;;;;2.45;2.10;;;;;;;9.75;81.67;98457.03;5055089;28;20112;-76
2023/03/26 06:24:42;;;;;;;3.97;2.13;;;;;;;9.77;82.08;98462.97;5055054;28;20032;-76
2023/03/26 06:27:07;;;;;;;3.75;2.03;;;;;;;9.68;81.94;98451.38;5054769;28;20071;-76
2023/03/26 06:29:32;;;;;;;4.18;2.00;;;;;;;9.73;81.81;98470.16;5054929;28;20024;-76
2023/03/26 06:31:58;;;;;;;2.88;1.80;;;;;;;9.60;81.93;98444.97;5054587;28;20468;-76
2023/03/26 06:34:23;;;;;;;3.90;2.47;;;;;;;9.54;82.24;98445.38;5054590;28;20032;-76
2023/03/26 06:36:51;;;;;;;3.75;2.10;;;;;;;9.56;82.47;98444.31;5054247;28;20021;-76
2023/03/26 06:39:16;;;;;;;2.38;1.90;;;;;;;9.61;82.16;98442.31;5054640;28;20040;-76
2023/03/26 06:41:42;;;;;;;4.72;2.25;;;;;;;9.74;82.22;98445.81;5054167;28;20021;-76
2023/03/26 06:44:07;;;;;;;3.65;2.20;;;;;;;9.77;81.93;98438.72;5054733;28;20040;-76
2023/03/26 06:46:32;;;;;;;2.83;2.15;;;;;;;9.83;81.86;98449.59;5054441;28;20059;-76
2023/03/26 06:48:58;;;;;;;2.88;2.05;;;;;;;9.80;81.44;98444.59;5054096;28;20060;-76
2023/03/26 06:51:23;;;;;;;3.50;2.20;;;;;;;9.96;81.07;98465.25;5052786;28;20029;-76
2023/03/26 06:53:49;;;;;;;2.28;2.00;;;;;;;9.92;81.25;98456.81;5053980;28;20380;-76
2023/03/26 06:56:14;;;;;;;4.95;2.45;;;;;;;10.08;81.25;98472.28;5054348;28;20021;-76
2023/03/26 06:58:40;;;;;;;5.93;2.58;;;;;;;10.07;81.06;98467.16;5053961;28;20130;-76
2023/03/26 07:01:05;;;;;;;3.55;2.20;;;;;;;10.16;80.97;98475.25;5054055;28;20068;-76
2023/03/26 07:03:30;;;;;;;4.00;2.70;;;;;;;10.15;80.69;98470.97;5054111;28;20052;-76
2023/03/26 07:05:56;;;;;;;3.80;2.17;;;;;;;9.94;80.83;98436.75;5053742;28;20029;-76
2023/03/26 07:08:21;;;;;;;2.70;2.50;;;;;;;10.15;80.97;98465.75;5053889;28;20069;-76
2023/03/26 07:10:46;;;;;;;4.93;2.67;;;;;;;10.22;80.64;98471.41;5053769;28;20044;-76
2023/03/26 07:13:12;;;;;;;4.13;1.98;;;;;;;10.28;81.00;98463.25;5053803;28;20495;-76
2023/03/26 07:15:37;;;;;;;4.55;2.35;;;;;;;10.17;80.31;98448.28;5053611;28;20031;-76
2023/03/26 07:18:03;;;;;;;4.15;2.30;;;;;;;10.43;80.16;98469.22;5053792;28;20524;-76
2023/03/26 07:20:28;;;;;;;3.63;2.35;;;;;;;10.49;79.96;98467.06;5053560;28;20127;-76
2023/03/26 07:22:54;;;;;;;4.03;2.30;;;;;;;10.66;79.25;98480.72;5052086;28;20032;-76
2023/03/26 07:25:20;;;;;;;4.72;2.60;;;;;;;10.59;78.65;98445.63;5053267;28;20388;-76
2023/03/26 07:28:03;;;;;;;4.65;2.40;;;;;;;10.74;78.40;98473.25;5051284;28;20115;-76
2023/03/26 07:30:49;;;;;;;3.83;3.08;;;;;;;10.56;78.24;98451.03;5053469;28;20021;-76
2023/03/26 07:33:32;;;;;;;4.28;3.28;;;;;;;10.65;77.96;98484.28;5053505;28;20025;-77
2023/03/26 07:36:15;;;;;;;3.15;2.25;;;;;;;10.56;78.22;98477.91;5053387;28;20028;-77
2023/03/26 07:38:53;;;;;;;4.95;2.53;;;;;;;10.47;78.45;98473.31;5053585;28;20029;-77
2023/03/26 07:41:28;;;;;;;5.78;2.75;;;;;;;10.40;77.81;98457.22;5053361;28;20035;-77
2023/03/26 07:44:09;;;;;;;4.60;1.92;;;;;;;10.44;77.61;98476.94;5053013;28;20044;-77
2023/03/26 07:46:35;;;;;;;2.00;1.80;;;;;;;10.31;77.87;98444.00;5053418;28;20029;-77
2023/03/26 07:49:03;;;;;;;3.22;2.05;;;;;;;10.34;78.15;98443.81;5053094;28;20021;-77
2023/03/26 07:51:29;;;;;;;3.22;2.10;;;;;;;10.41;77.79;98445.09;5053132;28;20028;-77
2023/03/26 07:53:55;;;;;;;4.88;1.95;;;;;;;10.44;77.91;98460.47;5052756;28;20040;-77
2023/03/26 07:56:56;;;;;;;2.95;2.10;;;;;;;10.49;77.96;98466.22;5052937;28;20377;-77
2023/03/26 08:00:11;;;;;;;2.38;2.17;;;;;;;10.51;77.92;98459.16;5052725;28;20029;-79
2023/03/26 08:02:51;;;;;;;2.00;1.90;;;;;;;10.55;78.07;98465.84;5030480;28;20044;-77
2023/03/26 08:05:26;;;;;;;3.42;2.28;;;;;;;10.30;78.06;98416.31;5030500;28;20082;-77
2023/03/26 08:08:01;;;;;;;2.67;2.47;;;;;;;10.45;78.28;98462.16;5013545;28;20029;-78
2023/03/26 08:10:50;;;;;;;4.97;2.80;;;;;;;10.44;78.79;98463.09;5030307;28;20080;-77
2023/03/26 08:13:26;;;;;;;2.97;2.67;;;;;;;10.38;78.95;98460.88;5030600;28;20037;-77
2023/03/26 08:16:16;;;;;;;3.35;2.53;;;;;;;10.55;79.15;98450.22;5030143;28;20102;-78
2023/03/26 08:19:27;;;;;;;2.50;2.30;;;;;;;10.73;78.32;98451.59;5029715;28;20168;-77
2023/03/26 08:22:00;;;;;;;3.85;2.58;;;;;;;10.52;77.78;98393.13;4951956;29;20043;-77
2023/03/26 08:25:00;;;;;;;4.20;2.53;;;;;;;10.87;78.03;98442.88;4951993;29;20071;-78
2023/03/26 08:27:36;;;;;;;3.35;2.92;;;;;;;10.94;77.80;98451.09;4951938;29;20027;-78
2023/03/26 08:30:07;;;;;;;4.70;2.78;;;;;;;10.95;78.30;98442.34;4951772;29;20031;-78
2023/03/26 08:32:33;;;;;;;3.67;2.72;;;;;;;10.98;77.73;98442.97;4951900;29;20039;-78
2023/03/26 08:34:59;;;;;;;5.25;3.35;;;;;;;11.02;78.03;98437.56;4951764;29;20031;-77
2023/03/26 08:37:26;;;;;;;21.05;19.25;;;;;;;10.99;78.78;98444.63;4951821;29;20395;-77
2023/03/26 08:39:51;;;;;;;4.90;3.42;;;;;;;11.07;78.30;98433.69;4983796;28;20718;-77
2023/03/26 08:42:45;;;;;;;3.97;3.00;;;;;;;11.35;77.66;98448.28;4990580;28;20109;-77
2023/03/26 08:45:20;;;;;;;3.80;2.92;;;;;;;11.56;77.75;98450.34;4990606;28;20465;-77
2023/03/26 08:47:54;;;;;;;4.38;3.30;;;;;;;11.61;77.54;98437.81;4990293;28;20311;-77
2023/03/26 08:50:48;;;;;;;3.35;2.40;;;;;;;11.63;77.25;98449.81;4990355;28;20039;-78
2023/03/26 08:53:32;;;;;;;2.45;2.25;;;;;;;11.68;77.18;98449.50;4931659;29;20098;-79
2023/03/26 08:56:15;;;;;;;3.28;1.98;;;;;;;11.54;76.61;98433.97;4932030;29;20103;-79
2023/03/26 08:58:50;;;;;;;2.75;1.92;;;;;;;11.52;76.67;98456.72;4990171;28;20033;-79
2023/03/26 09:01:27;;;;;;;4.13;1.77;;;;;;;11.48;76.66;98456.09;4990187;28;20068;-79
2023/03/26 09:04:27;;;;;;;3.53;1.65;;;;;;;11.34;76.97;98437.97;4989969;28;20410;-80
2023/03/26 09:07:13;;;;;;;2.83;1.55;;;;;;;11.44;77.96;98454.63;4989982;28;20038;-79
2023/03/26 09:10:16;;;;;;;2.13;1.60;;;;;;;11.49;77.48;98458.59;4989833;28;20038;-80
2023/03/26 09:12:56;;;;;;;2.10;1.70;;;;;;;11.62;77.14;98452.53;4990236;28;20030;-78
2023/03/26 09:15:57;;;;;;;3.47;1.20;;;;;;;11.52;76.05;98422.81;4990077;28;20526;-79
2023/03/26 09:18:38;;;;;;;1.40;1.30;;;;;;;11.65;75.61;98447.09;4989737;28;20498;-79
2023/03/26 09:21:23;;;;;;;1.98;1.30;;;;;;;11.67;74.47;98448.66;4989858;28;20653;-79
2023/03/26 09:24:21;;;;;;;1.60;1.30;;;;;;;11.65;75.04;98442.72;4995735;28;20461;-80
2023/03/26 09:27:24;;;;;;;3.42;1.80;;;;;;;11.93;74.78;98412.09;5009151;28;20061;-81
2023/03/26 09:30:10;;;;;;;4.20;1.77;;;;;;;12.36;74.35;98430.69;5032821;28;20038;-79
2023/03/26 09:33:02;;;;;;;3.70;1.40;;;;;;;12.38;74.19;98426.19;5051828;28;20099;-79
2023/03/26 09:35:53;;;;;;;3.63;2.05;;;;;;;12.24;75.23;98429.81;5051597;28;20029;-79
2023/03/26 09:38:33;;;;;;;4.07;1.90;;;;;;;12.46;75.00;98420.41;5029272;28;20041;-79
2023/03/26 09:41:12;;;;;;;2.10;1.90;;;;;;;12.76;73.60;98419.06;5028656;28;20029;-78
2023/03/26 09:44:10;;;;;;;2.40;1.65;;;;;;;13.05;72.82;98422.91;5029423;28;20045;-78
2023/03/26 09:46:59;;;;;;;3.75;1.80;;;;;;;13.20;72.15;98426.97;5029008;28;20095;-78
2023/03/26 09:49:45;;;;;;;3.72;1.95;;;;;;;13.21;70.80;98426.03;5029044;28;20456;-78
2023/03/26 09:52:38;;;;;;;2.53;1.98;;;;;;;13.17;70.78;98424.59;5032276;28;20040;-78
2023/03/26 09:55:28;;;;;;;2.95;2.17;;;;;;;13.00;69.53;98427.66;5032674;28;20038;-78
2023/03/26 09:58:07;;;;;;;3.38;2.03;;;;;;;12.88;68.94;98418.13;5032644;28;20436;-75
2023/03/26 10:00:47;;;;;;;2.15;1.95;;;;;;;12.88;68.76;98416.34;5032748;28;20116;-75
2023/03/26 10:03:37;;;;;;;3.58;2.25;;;;;;;13.06;67.21;98434.19;5032596;28;20045;-75
2023/03/26 10:06:23;;;;;;;1.80;1.70;;;;;;;13.29;68.20;98428.09;5032735;28;20493;-75
2023/03/26 10:09:00;;;;;;;5.15;2.00;;;;;;;13.53;66.77;98430.59;5032544;28;20033;-76
2023/03/26 10:11:44;;;;;;;4.53;2.03;;;;;;;13.63;64.10;98430.69;5032518;28;20029;-75
2023/03/26 10:14:27;;;;;;;2.15;1.77;;;;;;;13.72;63.12;98422.13;5034353;28;20029;-76
2023/03/26 10:17:10;;;;;;;5.93;3.08;;;;;;;13.66;62.06;98431.28;5054758;28;20029;-76
2023/03/26 10:19:56;;;;;;;4.40;2.15;;;;;;;13.39;62.68;98420.34;5054936;28;20476;-75
2023/03/26 10:22:30;;;;;;;3.50;1.90;;;;;;;13.02;64.80;98417.09;5054937;28;20099;-75
2023/03/26 10:25:23;;;;;;;3.00;2.00;;;;;;;12.81;66.92;98409.94;5054644;28;20033;-75
2023/03/26 10:28:01;;;;;;;3.33;2.15;;;;;;;12.58;69.13;98401.22;5054380;28;20461;-76
2023/03/26 10:31:04;;;;;;;2.20;1.70;;;;;;;12.60;70.23;98419.38;5054932;28;20112;-75
2023/03/26 10:33:51;;;;;;;2.70;1.65;;;;;;;12.52;70.20;98414.75;5054644;28;20051;-76
2023/03/26 10:36:28;;;;;;;3.13;1.77;;;;;;;12.49;70.66;98413.19;5050953;28;20126;-75
2023/03/26 10:39:15;;;;;;;3.33;1.73;;;;;;;12.28;71.05;98406.09;5041541;28;20487;-75
2023/03/26 10:41:58;;;;;;;2.17;1.60;;;;;;;12.08;71.43;98384.06;5034488;28;20026;-75
2023/03/26 10:44:23;;;;;;;3.55;2.20;;;;;;;12.26;71.47;98411.41;5034380;28;20037;-76
2023/03/26 10:47:33;;;;;;;1.95;1.55;;;;;;;12.29;72.54;98407.75;5033697;28;20416;-76
2023/03/26 10:50:15;;;;;;;4.20;2.55;;;;;;;12.29;72.10;98402.53;5033333;28;20033;-75
2023/03/26 10:52:52;;;;;;;3.15;2.67;;;;;;;12.28;72.10;98383.44;5039706;28;20104;-75
2023/03/26 10:55:26;;;;;;;3.00;2.00;;;;;;;12.48;72.06;98398.47;5044651;28;20021;-76
2023/03/26 10:57:55;;;;;;;3.80;2.53;;;;;;;12.56;70.72;98374.38;5053909;28;20091;-75
2023/03/26 11:00:27;;;;;;;3.85;2.08;;;;;;;12.71;69.19;98388.88;5054005;28;20036;-75
2023/03/26 11:02:53;;;;;;;4.40;2.60;;;;;;;12.92;69.57;98396.06;5052993;28;20032;-76
2023/03/26 11:05:25;;;;;;;3.78;1.77;;;;;;;12.90;67.47;98380.50;5053732;28;20021;-75
2023/03/26 11:08:00;;;;;;;4.88;3.30;;;;;;;13.05;67.72;98388.09;5053148;28;20033;-75
2023/03/26 11:10:47;;;;;;;1.67;1.58;;;;;;;13.13;66.28;98390.97;5053492;28;20075;-75
2023/03/26 11:13:36;;;;;;;3.65;2.00;;;;;;;13.31;66.40;98388.72;5053413;28;20105;-74
2023/03/26 11:16:10;;;;;;;3.35;1.90;;;;;;;13.38;67.23;98380.28;5030891;28;20045;-75
2023/03/26 11:18:43;;;;;;;6.35;3.97;;;;;;;13.43;66.78;98372.09;5030869;28;20497;-74
2023/03/26 11:21:27;;;;;;;4.47;2.35;;;;;;;13.59;64.87;98379.56;5030940;28;20053;-74
2023/03/26 11:24:08;;;;;;;2.83;2.47;;;;;;;13.65;65.26;98373.81;5030919;28;20091;-75
2023/03/26 11:26:41;;;;;;;;;;;;;;;13.67;64.74;98383.22;5031089;28;20555;-75
2023/03/26 11:29:22;;;;;;;5.00;3.78;;;;;;;13.66;64.83;98365.06;5030717;28;19916;-75
2023/03/26 11:31:47;;;;;;;3.43;2.77;;;;;;;13.88;63.75;98380.69;5030729;28;20030;-75
2023/03/26 11:34:16;;;;;;;5.45;3.63;;;;;;;13.79;64.98;98357.88;5030362;28;20043;-75
2023/03/26 11:36:52;;;;;;;4.18;2.90;;;;;;;13.92;64.94;98376.03;5030727;28;20049;-75
2023/03/26 11:39:25;;;;;;;7.13;4.25;;;;;;;13.93;64.88;98369.84;5030515;28;20025;-75
2023/03/26 11:42:01;;;;;;;7.22;4.85;;;;;;;13.89;64.91;98363.19;5030148;28;20037;-74
2023/03/26 11:44:33;;;;;;;4.38;2.78;;;;;;;13.81;64.74;98381.28;5030470;28;20025;-75
2023/03/26 11:47:04;;;;;;;3.05;2.50;;;;;;;13.70;65.10;98380.38;5030278;28;20611;-74
2023/03/26 11:49:31;;;;;;;13.90;9.27;;;;;;;13.59;65.98;98379.56;5030320;28;20037;-76
2023/03/26 11:51:57;;;;;;;3.40;2.90;;;;;;;13.46;66.39;98387.53;5030256;28;20053;-76
2023/03/26 11:54:23;;;;;;;4.40;2.90;;;;;;;13.35;67.12;98375.28;5052882;28;20055;-76
2023/03/26 11:57:00;;;;;;;4.65;2.92;;;;;;;13.36;68.84;98369.13;5052760;28;20048;-76
2023/03/26 11:59:44;;;;;;;5.03;3.30;;;;;;;13.49;70.45;98371.63;5052682;28;20021;-76
2023/03/26 12:02:12;;;;;;;3.85;2.58;;;;;;;13.53;70.22;98373.03;5052659;28;20029;-75